• Join FlightAware (Why Join?)
  • Login
  • US Flag 
02:25PM EDT


 

Airport Tracker/Info


-or-


 

Live Flight TrackerFlight Track Log ✈ N213SR ✈ 23-Aug-2013 ✈ KCRG - KCRG

Flight Track Log - Related Links

Times and Time Zones

All times are in EDT time to prevent confusion due to time zone crossing. See the N213SR flight status page for this flight to view local times or setup timezone preferences in your user account.

Time Position Orientation Groundspeed Altitude Reporting Facility
EDT Latitude Longitude Course Direction KTS MPH feet Rate Location/Type
09:46AM 30.3364 -81.5111 298° West 70 81 600  Level Jacksonville Center
09:48AM 30.3514 -81.5444 298° West 144 166 1,600 600 Climbing Jacksonville Center
09:49AM 30.3497 -81.5950 268° West 162 186 2,100 480 Climbing Jacksonville Center
09:50AM 30.3100 -81.5933 178° South 157 181 2,600 420 Climbing Jacksonville Center
09:51AM 30.2786 -81.5792 159° South 123 142 3,000 240 Climbing Jacksonville Center
09:52AM 30.2469 -81.5508 142° Southeast 146 168 3,100  Climbing Jacksonville Center
09:53AM 30.2069 -81.5203 147° Southeast 161 185 3,100  Level Jacksonville Center
09:54AM 30.1711 -81.4894 143° Southeast 156 180 3,100 -60 Level Jacksonville Center
09:55AM 30.1353 -81.4658 150° Southeast 142 163 3,000 -360 Descending Jacksonville Center
09:56AM 30.0981 -81.4906 210° Southwest 157 181 2,400 -480 Descending Jacksonville Center
09:57AM 30.0647 -81.5053 201° Southwest 157 181 2,100 -420 Descending Jacksonville Center
09:58AM 30.0394 -81.4672 127° Southeast 145 167 1,700 -240 Descending Jacksonville Center
09:59AM 30.0203 -81.4342 124° Southeast 129 148 1,700 -120 Level Jacksonville Center
10:00AM 30.0031 -81.4081 127° Southeast 108 124 1,500 -420 Descending Jacksonville Center
10:01AM 29.9883 -81.3867 128° Southeast 85 98 900  Descending Jacksonville Center
10:04AM 29.9414 -81.3011 122° Southeast 123 142 1,700 240 Climbing Jacksonville Center
10:05AM 29.9642 -81.2958 11° North 151 174 1,900 360 Climbing Jacksonville Center
10:06AM 30.0103 -81.3022 353° North 153 176 2,300 420 Climbing Jacksonville Center
10:07AM 30.0397 -81.3233 328° Northwest 153 176 2,800 360 Climbing Jacksonville Center
10:08AM 30.0508 -81.3711 285° West 155 178 3,100 120 Climbing Jacksonville Center
10:09AM 30.0700 -81.4214 294° West 183 211 3,100  Level Jacksonville Center
10:10AM 30.0833 -81.4714 287° West 157 181 3,100  Level Jacksonville Center
10:11AM 30.0983 -81.5169 291° West 147 169 3,100  Level Jacksonville Center
10:12AM 30.1114 -81.5647 288° West 145 167 3,100  Level Jacksonville Center
10:13AM 30.1244 -81.6103 288° West 142 163 3,100  Level Jacksonville Center
10:14AM 30.1331 -81.6533 283° West 144 166 3,100  Level Jacksonville Center
10:15AM 30.1253 -81.6989 259° West 140 161 3,100  Level Jacksonville Center
10:16AM 30.1214 -81.7422 264° West 142 163 3,100  Level Jacksonville Center
10:17AM 30.1447 -81.7806 305° West 140 161 3,100  Level Jacksonville Center
10:18AM 30.1681 -81.8233 302° West 144 166 3,100  Level Jacksonville Center
10:19AM 30.1933 -81.8592 309° West 141 162 3,100  Level Jacksonville Center
10:20AM 30.2167 -81.8997 304° West 145 167 3,100  Level Jacksonville Center
10:21AM 30.2233 -81.9453 280° West 141 162 3,100  Level Jacksonville Center
10:22AM 30.2383 -81.9836 294° West 135 155 3,100  Level Jacksonville Center
10:23AM 30.2469 -82.0244 284° West 129 148 3,100  Level Jacksonville Center
10:24AM 30.2597 -82.0678 289° West 128 147 3,100  Level Jacksonville Center
10:25AM 30.2661 -82.1061 281° West 122 140 3,100 -300 Level Jacksonville Center
10:26AM 30.2433 -82.1400 232° Southwest 140 161 2,600 -480 Descending Jacksonville Center
10:27AM 30.2269 -82.1786 244° Southwest 147 169 2,200 -240 Descending Jacksonville Center
10:28AM 30.2561 -82.1758 North 134 154 2,200 -180 Level Jacksonville Center
10:29AM 30.2725 -82.1372 64° Northeast 137 158 1,900 -540 Descending Jacksonville Center
10:30AM 30.2681 -82.0917 96° East 153 176 1,200 -360 Descending Jacksonville Center
10:31AM 30.2553 -82.0461 108° East 146 168 1,200  Level Jacksonville Center
10:32AM 30.2342 -82.0031 120° Southeast 140 161 1,300 -240 Climbing Jacksonville Center
10:33AM 30.2256 -81.9597 103° East 157 181 800 -240 Descending Jacksonville Center
10:35AM 30.2211 -81.9214 98° East 123 142 900  Climbing Jacksonville Center
10:36AM 30.2103 -81.8928 114° Southeast 101 116 900 120 Level Jacksonville Center
10:37AM 30.1956 -81.8592 117° Southeast 122 140 1,200 360 Climbing Jacksonville Center
10:38AM 30.1639 -81.8283 140° Southeast 152 175 1,700 480 Climbing Jacksonville Center
10:39AM 30.1386 -81.7925 129° Southeast 150 173 2,200 540 Climbing Jacksonville Center
10:40AM 30.1236 -81.7447 110° East 145 167 2,900 420 Climbing Jacksonville Center
10:41AM 30.1253 -81.7014 87° East 143 165 3,100 60 Climbing Jacksonville Center
10:42AM 30.1269 -81.6558 88° East 123 142 3,100  Level Jacksonville Center
10:43AM 30.1347 -81.6125 78° East 149 171 3,100  Level Jacksonville Center
10:44AM 30.1511 -81.5689 67° East 143 165 3,100  Level Jacksonville Center
10:45AM 30.1486 -81.5211 93° East 145 167 3,100  Level Jacksonville Center
10:46AM 30.1564 -81.4775 78° East 146 168 3,100  Level Jacksonville Center
10:47AM 30.1747 -81.4364 63° Northeast 135 155 3,100  Level Jacksonville Center
10:48AM 30.1617 -81.4006 113° Southeast 142 163 3,100  Level Jacksonville Center
10:49AM 30.1322 -81.3700 138° Southeast 131 151 3,100  Level Jacksonville Center
10:50AM 30.1422 -81.3361 71° East 143 165 3,100 -300 Level Jacksonville Center
10:51AM 30.1819 -81.3428 352° North 151 174 2,500 -600 Descending Jacksonville Center
10:52AM 30.2158 -81.3733 322° Northwest 146 168 2,000 -300 Descending Jacksonville Center
10:53AM 30.2433 -81.4067 314° West 141 162 2,000  Level Jacksonville Center
10:54AM 30.2622 -81.4281 316° Northwest 131 151 2,000 -420 Level Jacksonville Center
10:55AM 30.2878 -81.4589 314° West 96 110 1,300 -600 Descending Jacksonville Center
10:56AM 30.3047 -81.4803 313° West 101 116 800 -300 Descending Jacksonville Center
10:57AM 30.3133 -81.5042 293° West 88 101 700 -240 Descending Jacksonville Center
10:58AM 30.3156 -81.5258 277° West 95 109 400 -300 Descending Jacksonville Center